createdAt,value
2022-08-22T00:01:32.573Z,96953.52
2022-08-22T00:02:45.175Z,96952.96
2022-08-22T00:04:15.636Z,96950.00
2022-08-22T00:06:46.149Z,96947.48
2022-08-22T00:09:29.604Z,96948.21
2022-08-22T00:12:21.258Z,96946.78
2022-08-22T00:15:42.313Z,96944.40
2022-08-22T00:18:16.231Z,96939.36
2022-08-22T00:20:57.000Z,96936.31
2022-08-22T00:23:39.526Z,96934.71
2022-08-22T00:26:17.141Z,96935.98
2022-08-22T00:28:52.361Z,96934.13
2022-08-22T00:31:32.413Z,96928.67
2022-08-22T00:34:08.710Z,96933.95
2022-08-22T00:36:53.774Z,96932.02
2022-08-22T00:39:24.232Z,96928.50
2022-08-22T00:42:13.645Z,96927.95
2022-08-22T00:45:00.231Z,96926.84
2022-08-22T00:47:44.719Z,96927.31
2022-08-22T00:50:20.705Z,96929.53
2022-08-22T00:53:08.095Z,96931.20
2022-08-22T00:56:00.639Z,96934.67
2022-08-22T00:59:17.957Z,96938.52
2022-08-22T01:02:01.852Z,96937.79
2022-08-22T01:05:06.149Z,96939.09
2022-08-22T01:07:44.133Z,96943.23
2022-08-22T01:10:27.664Z,96943.70
2022-08-22T01:13:22.585Z,96942.71
2022-08-22T01:15:53.880Z,96943.01
2022-08-22T01:18:43.012Z,96940.28
2022-08-22T01:21:36.137Z,96948.14
2022-08-22T01:24:31.687Z,96956.83
2022-08-22T01:27:32.344Z,96969.79
2022-08-22T01:30:12.057Z,96975.71
2022-08-22T01:33:11.338Z,96967.84
2022-08-22T01:36:03.826Z,96965.94
2022-08-22T01:39:10.141Z,96962.69
2022-08-22T01:41:44.270Z,96959.55
2022-08-22T01:44:35.906Z,96957.66
2022-08-22T01:47:27.415Z,96955.42
2022-08-22T01:50:10.564Z,96952.35
2022-08-22T01:52:50.976Z,96941.48
2022-08-22T01:55:30.388Z,96945.65
2022-08-22T01:58:02.294Z,96948.65
2022-08-22T02:00:35.926Z,96941.88
2022-08-22T02:03:40.349Z,96940.58
2022-08-22T02:06:14.499Z,96940.77
2022-08-22T02:09:01.244Z,96943.46
2022-08-22T02:11:40.908Z,96936.73
2022-08-22T02:14:27.418Z,96932.06
2022-08-22T02:16:58.765Z,96925.60
2022-08-22T02:19:34.253Z,96918.96
2022-08-22T02:22:07.994Z,96918.23
2022-08-22T02:25:15.796Z,96919.56
2022-08-22T02:27:55.293Z,96925.48
2022-08-22T02:30:43.377Z,96925.60
2022-08-22T02:33:23.934Z,96928.02
2022-08-22T02:36:00.944Z,96928.35
2022-08-22T02:38:39.668Z,96934.26
2022-08-22T02:41:22.172Z,96931.50
2022-08-22T02:43:57.018Z,96936.41
2022-08-22T02:46:24.677Z,96939.23
2022-08-22T02:49:43.812Z,96944.30
2022-08-22T02:52:35.367Z,96942.79
2022-08-22T02:55:20.134Z,96952.14
2022-08-22T02:58:01.890Z,96958.59
2022-08-22T03:00:42.056Z,96961.28
2022-08-22T03:03:21.985Z,96960.91
2022-08-22T03:05:52.119Z,96958.98
2022-08-22T03:08:30.763Z,96957.29
2022-08-22T03:11:21.236Z,96957.14
2022-08-22T03:14:13.068Z,96960.09
2022-08-22T03:16:58.613Z,96957.77
2022-08-22T03:20:00.638Z,96949.77
2022-08-22T03:22:37.642Z,96948.36
2022-08-22T03:25:30.078Z,96956.05
2022-08-22T03:28:04.356Z,96958.20
2022-08-22T03:30:46.200Z,96957.83
2022-08-22T03:33:18.320Z,96965.41
2022-08-22T03:35:46.025Z,96967.06
2022-08-22T03:38:33.086Z,96966.61
2022-08-22T03:41:35.471Z,96966.71
2022-08-22T03:44:12.248Z,96958.55
2022-08-22T03:46:55.930Z,96954.43
2022-08-22T03:49:35.348Z,96955.70
2022-08-22T03:52:27.181Z,96964.04
2022-08-22T03:55:15.889Z,96972.81
2022-08-22T03:57:58.331Z,96973.77
2022-08-22T04:00:57.166Z,96961.85
2022-08-22T04:04:11.639Z,96956.01
2022-08-22T04:06:42.509Z,96961.94
2022-08-22T04:09:32.249Z,96962.44
2022-08-22T04:12:34.159Z,96968.04
2022-08-22T04:15:19.811Z,96968.52
2022-08-22T04:18:05.539Z,96965.89
2022-08-22T04:20:55.078Z,96962.84
2022-08-22T04:23:31.548Z,96967.09
2022-08-22T04:26:12.692Z,96970.36
2022-08-22T04:28:45.601Z,96958.52
2022-08-22T04:31:17.766Z,96950.09
2022-08-22T04:34:12.523Z,96944.98
2022-08-22T04:36:46.025Z,96948.89
2022-08-22T04:39:22.822Z,96955.75
2022-08-22T04:42:11.157Z,96963.42
2022-08-22T04:44:54.568Z,96967.58
2022-08-22T04:47:39.720Z,96966.13
2022-08-22T04:50:15.424Z,96960.95
2022-08-22T04:52:53.170Z,96962.79
2022-08-22T04:55:46.641Z,96972.66
2022-08-22T04:58:39.926Z,96979.00
2022-08-22T05:01:07.560Z,96984.34
2022-08-22T05:03:41.885Z,96982.75
2022-08-22T05:06:16.209Z,96983.17
2022-08-22T05:08:46.444Z,96991.66
2022-08-22T05:11:23.178Z,96997.66
2022-08-22T05:13:56.866Z,97004.70
2022-08-22T05:16:30.724Z,97009.22
2022-08-22T05:19:04.108Z,97013.53
2022-08-22T05:21:35.586Z,97010.85
2022-08-22T05:24:07.057Z,97009.04
2022-08-22T05:26:43.341Z,97007.63
2022-08-22T05:29:14.599Z,97007.30
2022-08-22T05:31:49.488Z,97008.14
2022-08-22T05:34:24.908Z,97005.02
2022-08-22T05:36:57.706Z,97001.39
2022-08-22T05:39:28.245Z,97003.31
2022-08-22T05:42:02.423Z,97008.60
2022-08-22T05:44:37.885Z,97010.40
2022-08-22T05:47:14.928Z,97008.35
2022-08-22T05:49:51.572Z,97006.84
2022-08-22T05:52:29.011Z,97010.63
2022-08-22T05:55:07.986Z,97007.59
2022-08-22T05:57:39.645Z,97012.15
2022-08-22T06:00:13.264Z,97012.33
2022-08-22T06:03:08.296Z,97011.08
2022-08-22T06:05:40.614Z,97011.29
2022-08-22T06:08:18.009Z,97009.64
2022-08-22T06:10:49.763Z,97013.98
2022-08-22T06:13:32.568Z,97014.92
2022-08-22T06:16:00.173Z,97017.91
2022-08-22T06:18:29.380Z,97012.77
2022-08-22T06:21:01.997Z,97017.27
2022-08-22T06:23:37.003Z,97019.92
2022-08-22T06:26:05.784Z,97014.38
2022-08-22T06:28:55.125Z,97010.86
2022-08-22T06:31:29.282Z,97011.21
2022-08-22T06:34:09.230Z,97012.37
2022-08-22T06:36:40.066Z,97017.55
2022-08-22T06:39:11.484Z,97022.33
2022-08-22T06:41:52.313Z,97019.79
2022-08-22T06:44:30.000Z,97020.36
2022-08-22T06:47:00.290Z,97021.71
2022-08-22T06:49:29.617Z,97030.20
2022-08-22T06:52:23.739Z,97037.19
2022-08-22T06:55:00.219Z,97032.11
2022-08-22T06:57:35.291Z,97029.83
2022-08-22T07:00:10.939Z,97030.16
2022-08-22T07:02:42.970Z,97031.67
2022-08-22T07:05:17.631Z,97037.77
2022-08-22T07:07:45.850Z,97036.27
2022-08-22T07:10:15.844Z,97035.49
2022-08-22T07:12:46.552Z,97036.00
2022-08-22T07:15:34.541Z,97039.15
2022-08-22T07:18:09.825Z,97043.84
2022-08-22T07:20:42.129Z,97039.77
2022-08-22T07:23:12.656Z,97041.57
2022-08-22T07:25:59.846Z,97040.08
2022-08-22T07:28:51.259Z,97044.40
2022-08-22T07:31:46.733Z,97042.89
2022-08-22T07:34:23.184Z,97041.77
2022-08-22T07:37:03.681Z,97040.93
2022-08-22T07:39:50.510Z,97042.83
2022-08-22T07:42:35.685Z,97043.36
2022-08-22T07:45:20.891Z,97041.29
2022-08-22T07:48:06.824Z,97040.20
2022-08-22T07:50:39.382Z,97040.67
2022-08-22T07:53:34.053Z,97038.62
2022-08-22T07:56:03.882Z,97040.05
2022-08-22T07:58:34.079Z,97043.25
2022-08-22T08:01:02.754Z,97038.95
2022-08-22T08:03:31.480Z,97041.00
2022-08-22T08:06:00.492Z,97038.59
2022-08-22T08:08:35.042Z,97039.61
2022-08-22T08:11:04.033Z,97037.59
2022-08-22T08:13:38.275Z,97032.02
2022-08-22T08:16:09.830Z,97029.44
2022-08-22T08:18:39.344Z,97033.81
2022-08-22T08:21:09.473Z,97033.09
2022-08-22T08:23:42.083Z,97033.18
2022-08-22T08:26:19.778Z,97034.21
2022-08-22T08:28:51.601Z,97031.13
2022-08-22T08:31:43.233Z,97030.55
2022-08-22T08:34:21.062Z,97030.85
2022-08-22T08:37:12.780Z,97031.52
2022-08-22T08:39:49.024Z,97030.64
2022-08-22T08:42:55.684Z,97029.20
2022-08-22T08:45:40.603Z,97026.20
2022-08-22T08:48:15.011Z,97028.17
2022-08-22T08:50:45.700Z,97031.45
2022-08-22T08:53:55.382Z,97029.68
2022-08-22T08:56:23.059Z,97033.45
2022-08-22T08:59:00.341Z,97032.88
2022-08-22T09:01:43.393Z,97030.96
2022-08-22T09:04:17.232Z,97029.23
2022-08-22T09:07:09.764Z,97025.87
2022-08-22T09:10:01.290Z,97026.82
2022-08-22T09:13:12.762Z,97026.24
2022-08-22T09:15:40.978Z,97026.24
2022-08-22T09:18:31.293Z,97024.29
2022-08-22T09:24:41.665Z,97025.42
2022-08-22T09:27:29.232Z,97019.45
2022-08-22T09:30:08.308Z,97020.65
2022-08-22T09:32:56.923Z,97020.39
2022-08-22T09:35:41.945Z,97017.91
2022-08-22T09:38:28.535Z,97017.17
2022-08-22T09:41:25.270Z,97017.30
2022-08-22T09:43:52.913Z,97017.70
2022-08-22T09:46:31.630Z,97016.09
2022-08-22T09:49:14.530Z,97011.48
2022-08-22T09:51:56.460Z,97007.85
2022-08-22T09:54:31.075Z,97007.09
2022-08-22T09:57:16.483Z,97003.38
2022-08-22T10:00:12.993Z,97003.27
2022-08-22T10:02:49.651Z,97001.72
2022-08-22T10:05:45.528Z,96998.99
2022-08-22T10:08:31.410Z,96999.70
2022-08-22T10:11:07.079Z,96991.80
2022-08-22T10:14:01.962Z,96994.66
2022-08-22T10:17:01.924Z,96992.95
2022-08-22T10:19:42.826Z,96996.40
2022-08-22T10:22:30.170Z,96998.75
2022-08-22T10:25:20.489Z,97002.20
2022-08-22T10:28:10.433Z,97005.25
2022-08-22T10:30:56.522Z,97002.60
2022-08-22T10:33:29.308Z,97001.08
2022-08-22T10:36:07.902Z,96997.32
2022-08-22T10:38:50.595Z,96997.66
2022-08-22T10:41:59.897Z,96997.05
2022-08-22T10:44:55.138Z,96993.93
2022-08-22T10:47:29.857Z,96986.13
2022-08-22T10:50:10.794Z,96982.25
2022-08-22T10:53:12.232Z,96981.77
2022-08-22T10:55:40.919Z,96985.15
2022-08-22T10:58:14.869Z,96982.88
2022-08-22T11:01:00.506Z,96975.86
2022-08-22T11:03:40.277Z,96975.08
2022-08-22T11:06:15.455Z,96975.23
2022-08-22T11:09:09.029Z,96978.06
2022-08-22T11:11:44.444Z,96977.96
2022-08-22T11:14:31.645Z,96977.39
2022-08-22T11:17:30.998Z,96973.99
2022-08-22T11:20:19.627Z,96975.29
2022-08-22T11:23:06.497Z,96970.98
2022-08-22T11:25:52.548Z,96967.10
2022-08-22T11:28:28.841Z,96962.86
2022-08-22T11:31:22.765Z,96963.73
2022-08-22T11:34:16.374Z,96958.42
2022-08-22T11:36:54.853Z,96952.27
2022-08-22T11:39:28.914Z,96954.89
2022-08-22T11:42:15.677Z,96945.36
2022-08-22T11:44:57.261Z,96946.31
2022-08-22T11:47:30.911Z,96947.45
2022-08-22T11:50:10.722Z,96944.16
2022-08-22T11:53:15.511Z,96935.38
2022-08-22T11:55:53.202Z,96935.00
2022-08-22T11:58:39.393Z,96930.44
2022-08-22T12:01:23.660Z,96930.31
2022-08-22T12:04:06.508Z,96924.46
2022-08-22T12:06:47.004Z,96921.17
2022-08-22T12:09:23.090Z,96920.65
2022-08-22T12:11:59.649Z,96920.49
2022-08-22T12:14:36.918Z,96914.09
2022-08-22T12:17:10.689Z,96913.80
2022-08-22T12:20:18.579Z,96908.50
2022-08-22T12:22:52.649Z,96909.11
2022-08-22T12:25:22.157Z,96904.71
2022-08-22T12:28:20.444Z,96905.73
2022-08-22T12:31:19.697Z,96902.11
2022-08-22T12:33:58.764Z,96905.15
2022-08-22T12:36:43.169Z,96903.95
2022-08-22T12:39:32.412Z,96907.16
2022-08-22T12:42:11.247Z,96901.80
2022-08-22T12:45:07.543Z,96899.28
2022-08-22T12:48:01.318Z,96894.78
2022-08-22T12:51:03.681Z,96898.95
2022-08-22T12:54:15.765Z,96911.66
2022-08-22T12:57:01.694Z,96908.46
2022-08-22T12:59:39.491Z,96905.94
2022-08-22T13:02:20.582Z,96908.95
2022-08-22T13:04:56.078Z,96917.30
2022-08-22T13:07:32.990Z,96918.40
2022-08-22T13:10:21.764Z,96920.45
2022-08-22T13:12:53.314Z,96917.38
2022-08-22T13:15:22.092Z,96916.93
2022-08-22T13:17:54.875Z,96912.82
2022-08-22T13:20:44.419Z,96907.42
2022-08-22T13:23:16.889Z,96902.60
2022-08-22T13:26:07.685Z,96902.16
2022-08-22T13:29:24.458Z,96910.43
2022-08-22T13:32:02.196Z,96905.48
2022-08-22T13:34:40.531Z,96907.81
2022-08-22T13:37:20.153Z,96906.92
2022-08-22T13:39:57.892Z,96908.70
2022-08-22T13:42:30.994Z,96912.42
2022-08-22T13:45:04.592Z,96915.47
2022-08-22T13:47:39.451Z,96922.23
2022-08-22T13:50:14.965Z,96923.48
2022-08-22T13:53:02.075Z,96932.17
2022-08-22T13:55:44.481Z,96931.92
2022-08-22T13:58:44.575Z,96931.23
2022-08-22T14:01:37.872Z,96925.30
2022-08-22T14:04:28.333Z,96922.79
2022-08-22T14:07:02.902Z,96924.20
2022-08-22T14:09:54.382Z,96923.14
2022-08-22T14:12:24.553Z,96923.19
2022-08-22T14:14:59.655Z,96923.06
2022-08-22T14:17:44.151Z,96926.98
2022-08-22T14:20:33.601Z,96923.02
2022-08-22T14:23:08.842Z,96923.15
2022-08-22T14:25:40.090Z,96922.94
2022-08-22T14:28:19.735Z,96916.32
2022-08-22T14:31:00.790Z,96914.36
2022-08-22T14:33:35.609Z,96914.52
2022-08-22T14:36:13.424Z,96906.99
2022-08-22T14:38:47.029Z,96908.02
2022-08-22T14:41:21.068Z,96907.29
2022-08-22T14:43:57.336Z,96904.06
2022-08-22T14:46:30.265Z,96901.23
2022-08-22T14:49:13.648Z,96899.27
2022-08-22T14:51:50.853Z,96903.23
2022-08-22T14:54:22.133Z,96900.46
2022-08-22T14:56:52.789Z,96910.20
2022-08-22T14:59:33.326Z,96911.62
2022-08-22T15:02:24.116Z,96912.61
2022-08-22T15:04:53.674Z,96910.83
2022-08-22T15:07:25.548Z,96909.40
2022-08-22T15:09:58.817Z,96912.78
2022-08-22T15:12:39.456Z,96910.42
2022-08-22T15:15:16.908Z,96912.27
2022-08-22T15:17:50.833Z,96911.89
2022-08-22T15:20:36.385Z,96913.23
2022-08-22T15:23:21.219Z,96922.34
2022-08-22T15:26:07.598Z,96927.64
2022-08-22T15:28:53.392Z,96927.25
2022-08-22T15:31:22.358Z,96932.48
2022-08-22T15:33:51.539Z,96945.54
2022-08-22T15:36:25.265Z,96950.14
2022-08-22T15:39:33.858Z,96957.02
2022-08-22T15:42:03.315Z,96956.45
2022-08-22T15:44:37.122Z,96964.23
2022-08-22T15:47:27.081Z,96971.70
2022-08-22T15:50:01.446Z,96976.31
2022-08-22T15:52:32.290Z,96977.36
2022-08-22T15:55:17.155Z,96977.16
2022-08-22T15:57:52.189Z,96976.17
2022-08-22T16:00:32.671Z,96968.88
2022-08-22T16:03:05.338Z,96966.50
2022-08-22T16:05:58.910Z,96964.73
2022-08-22T16:08:41.212Z,96973.96
2022-08-22T16:11:18.088Z,96975.13
2022-08-22T16:13:46.658Z,96984.98
2022-08-22T16:16:26.488Z,96990.29
2022-08-22T16:18:54.336Z,96999.54
2022-08-22T16:21:22.368Z,96999.58
2022-08-22T16:23:50.084Z,97001.32
2022-08-22T16:26:31.166Z,97007.36
2022-08-22T16:29:13.616Z,97015.73
2022-08-22T16:31:48.408Z,97023.38
2022-08-22T16:34:16.474Z,97025.37
2022-08-22T16:37:08.702Z,97026.80
2022-08-22T16:40:03.481Z,97028.05
2022-08-22T16:42:34.206Z,97027.45
2022-08-22T16:45:14.436Z,97027.33
2022-08-22T16:47:56.769Z,97025.91
2022-08-22T16:50:40.917Z,97023.19
2022-08-22T16:53:45.864Z,97020.40
2022-08-22T16:56:20.075Z,97020.38
2022-08-22T16:59:23.576Z,97024.25
2022-08-22T17:02:06.231Z,97024.73
2022-08-22T17:04:44.050Z,97028.36
2022-08-22T17:07:21.517Z,97032.79
2022-08-22T17:10:11.668Z,97041.31
2022-08-22T17:12:58.212Z,97041.29
2022-08-22T17:15:34.754Z,97045.11
2022-08-22T17:18:11.708Z,97047.77
2022-08-22T17:20:46.430Z,97050.95
2022-08-22T17:23:33.523Z,97052.93
2022-08-22T17:26:18.137Z,97068.04
2022-08-22T17:29:04.622Z,97084.77
2022-08-22T17:31:40.354Z,97088.73
2022-08-22T17:34:26.267Z,97098.58
2022-08-22T17:36:59.937Z,97103.50
2022-08-22T17:39:46.278Z,97100.45
2022-08-22T17:42:45.025Z,97103.88
2022-08-22T17:45:12.706Z,97100.40
2022-08-22T17:47:52.516Z,97106.48
2022-08-22T17:50:41.825Z,97114.46
2022-08-22T17:53:16.241Z,97119.27
2022-08-22T17:56:01.071Z,97131.98
2022-08-22T17:58:43.496Z,97148.10
2022-08-22T18:01:16.186Z,97148.39
2022-08-22T18:03:51.635Z,97144.19
2022-08-22T18:06:19.318Z,97140.77
2022-08-22T18:09:15.427Z,97135.55
2022-08-22T18:11:45.349Z,97124.36
2022-08-22T18:14:18.807Z,97116.81
2022-08-22T18:16:48.887Z,97110.98
2022-08-22T18:19:44.341Z,97106.04
2022-08-22T18:22:19.312Z,97107.61
2022-08-22T18:24:55.584Z,97109.78
2022-08-22T18:27:34.724Z,97111.36
2022-08-22T18:30:19.825Z,97109.57
2022-08-22T18:32:51.545Z,97108.55
2022-08-22T18:35:23.079Z,97104.97
2022-08-22T18:38:19.129Z,97104.66
2022-08-22T18:40:55.131Z,97093.25
2022-08-22T18:43:31.709Z,97090.05
2022-08-22T18:46:03.844Z,97094.20
2022-08-22T18:48:54.389Z,97099.90
2022-08-22T18:51:38.528Z,97107.55
2022-08-22T18:54:11.132Z,97114.10
2022-08-22T18:56:54.685Z,97123.01
2022-08-22T18:59:46.878Z,97135.07
2022-08-22T19:02:33.992Z,97142.80
2022-08-22T19:05:24.456Z,97147.02
2022-08-22T19:08:01.185Z,97147.64
2022-08-22T19:10:51.413Z,97152.14
2022-08-22T19:13:19.223Z,97156.79
2022-08-22T19:15:55.996Z,97157.59
2022-08-22T19:18:29.571Z,97159.80
2022-08-22T19:21:43.952Z,97157.48
2022-08-22T19:24:33.438Z,97161.10
2022-08-22T19:27:07.232Z,97166.52
2022-08-22T19:29:34.849Z,97162.40
2022-08-22T19:32:05.865Z,97166.55
2022-08-22T19:34:41.996Z,97170.20
2022-08-22T19:37:32.554Z,97171.85
2022-08-22T19:40:10.374Z,97169.55
2022-08-22T19:42:40.143Z,97174.65
2022-08-22T19:45:19.634Z,97176.92
2022-08-22T19:48:10.517Z,97180.09
2022-08-22T19:50:39.756Z,97181.25
2022-08-22T19:53:19.705Z,97182.99
2022-08-22T19:56:08.707Z,97186.14
2022-08-22T19:58:36.473Z,97186.17
2022-08-22T20:01:04.359Z,97185.16
2022-08-22T20:03:51.517Z,97183.67
2022-08-22T20:06:43.982Z,97187.85
2022-08-22T20:09:45.212Z,97193.16
2022-08-22T20:12:36.835Z,97198.13
2022-08-22T20:15:17.193Z,97205.59
2022-08-22T20:18:11.620Z,97212.36
2022-08-22T20:20:38.522Z,97221.51
2022-08-22T20:23:13.899Z,97229.53
2022-08-22T20:25:45.142Z,97231.36
2022-08-22T20:28:31.418Z,97234.97
2022-08-22T20:31:02.352Z,97240.10
2022-08-22T20:33:55.942Z,97244.23
2022-08-22T20:36:28.921Z,97244.92
2022-08-22T20:39:07.960Z,97241.36
2022-08-22T20:41:44.767Z,97240.18
2022-08-22T20:44:40.811Z,97246.42
2022-08-22T20:47:19.402Z,97250.79
2022-08-22T20:49:50.731Z,97249.84
2022-08-22T20:52:21.677Z,97243.02
2022-08-22T20:55:12.350Z,97242.44
2022-08-22T20:57:49.172Z,97242.86
2022-08-22T21:00:26.004Z,97241.67
2022-08-22T21:02:53.871Z,97241.00
2022-08-22T21:05:33.500Z,97241.98
2022-08-22T21:08:06.062Z,97240.44
2022-08-22T21:10:55.323Z,97237.15
2022-08-22T21:13:28.985Z,97238.80
2022-08-22T21:16:15.774Z,97244.84
2022-08-22T21:18:46.509Z,97247.77
2022-08-22T21:21:29.053Z,97244.70
2022-08-22T21:24:06.653Z,97245.08
2022-08-22T21:26:39.405Z,97245.41
2022-08-22T21:29:18.377Z,97240.56
2022-08-22T21:32:04.514Z,97240.34
2022-08-22T21:34:42.450Z,97236.26
2022-08-22T21:37:25.515Z,97233.77
2022-08-22T21:40:02.149Z,97231.16
2022-08-22T21:42:39.816Z,97229.29
2022-08-22T21:45:13.782Z,97226.29
2022-08-22T21:47:42.931Z,97226.30
2022-08-22T21:50:25.663Z,97229.58
2022-08-22T21:52:56.273Z,97228.08
2022-08-22T21:55:29.154Z,97227.11
2022-08-22T21:58:10.676Z,97221.85
2022-08-22T22:00:54.517Z,97217.17
2022-08-22T22:03:31.147Z,97214.02
2022-08-22T22:06:01.173Z,97212.88
2022-08-22T22:08:31.392Z,97212.31
2022-08-22T22:11:02.594Z,97209.83
2022-08-22T22:13:33.581Z,97206.31
2022-08-22T22:16:01.366Z,97203.60
2022-08-22T22:18:34.130Z,97202.21
2022-08-22T22:21:02.082Z,97203.31
2022-08-22T22:23:30.167Z,97203.95
2022-08-22T22:26:00.894Z,97203.65
2022-08-22T22:28:30.449Z,97203.69
2022-08-22T22:30:58.867Z,97199.32
2022-08-22T22:33:31.007Z,97200.20
2022-08-22T22:36:04.499Z,97203.89
2022-08-22T22:38:32.419Z,97202.86
2022-08-22T22:41:00.188Z,97205.84
2022-08-22T22:43:28.871Z,97210.61
2022-08-22T22:45:56.943Z,97218.48
2022-08-22T22:48:25.115Z,97224.75
2022-08-22T22:50:54.093Z,97226.23
2022-08-22T22:53:40.217Z,97221.73
2022-08-22T22:56:14.220Z,97215.04
2022-08-22T22:58:44.239Z,97213.63
2022-08-22T23:01:15.728Z,97211.67
2022-08-22T23:03:44.348Z,97209.49
2022-08-22T23:06:18.267Z,97205.05
2022-08-22T23:08:47.382Z,97208.00
2022-08-22T23:11:19.006Z,97206.64
2022-08-22T23:13:48.394Z,97206.71
2022-08-22T23:16:24.037Z,97203.91
2022-08-22T23:18:52.305Z,97201.63
2022-08-22T23:21:23.399Z,97200.16
2022-08-22T23:23:53.644Z,97197.67
2022-08-22T23:26:21.424Z,97197.19
2022-08-22T23:28:49.334Z,97199.42
2022-08-22T23:31:38.930Z,97201.80
2022-08-22T23:34:13.561Z,97203.58
2022-08-22T23:36:45.519Z,97199.36
2022-08-22T23:39:15.530Z,97194.96
2022-08-22T23:41:43.551Z,97190.58
2022-08-22T23:44:13.895Z,97192.70
2022-08-22T23:46:42.774Z,97191.51
2022-08-22T23:49:10.795Z,97195.13
2022-08-22T23:51:38.954Z,97200.01
2022-08-22T23:54:07.444Z,97203.52
2022-08-22T23:56:38.250Z,97204.23
2022-08-22T23:59:09.740Z,97201.08
